Time;durP1;ratioP1;P1;durP2;ratioP2;P2;SDS_P1;SDS_P2;PMS_P1;PMS_P2;Temp;Humidity;BMP_temperature;BMP_pressure;BME280_temperature;BME280_humidity;BME280_pressure;Samples;Min_cycle;Max_cycle;Signal;HPM_P1;HPM_P2
2022/02/13 00:00:16;;;;;;;26.00;12.23;;;;;;;-0.55;70.61;102639.67;126376;1099;104174;-80
2022/02/13 00:03:08;;;;;;;26.67;12.50;;;;;;;-0.56;70.70;102635.28;126279;1099;104149;-80
2022/02/13 00:05:39;;;;;;;24.57;11.53;;;;;;;-0.58;70.50;102636.74;126374;1098;104149;-81
2022/02/13 00:08:11;;;;;;;26.30;12.93;;;;;;;-0.62;71.34;102635.48;126358;1099;104287;-82
2022/02/13 00:10:42;;;;;;;25.90;12.30;;;;;;;-0.63;70.66;102635.30;126340;1099;104149;-80
2022/02/13 00:13:14;;;;;;;25.13;12.47;;;;;;;-0.64;70.80;102644.72;126290;1099;104146;-80
2022/02/13 00:15:46;;;;;;;27.13;12.37;;;;;;;-0.66;70.20;102646.17;126302;1099;104149;-81
2022/02/13 00:18:17;;;;;;;23.67;11.63;;;;;;;-0.68;71.22;102641.61;126359;1099;104241;-81
2022/02/13 00:20:49;;;;;;;24.47;11.60;;;;;;;-0.73;71.08;102641.08;126335;1097;104309;-82
2022/02/13 00:23:20;;;;;;;24.80;12.53;;;;;;;-0.79;71.82;102637.79;126318;1099;104143;-81
2022/02/13 00:25:52;;;;;;;24.67;12.63;;;;;;;-0.83;71.02;102638.16;126382;1099;104300;-81
2022/02/13 00:28:23;;;;;;;27.10;13.33;;;;;;;-0.88;71.79;102632.48;126335;1099;104184;-82
2022/02/13 00:30:55;;;;;;;24.47;12.00;;;;;;;-0.95;71.82;102633.44;126323;1099;104175;-82
2022/02/13 00:33:26;;;;;;;23.77;11.60;;;;;;;-0.99;71.27;102632.91;126326;1099;104198;-80
2022/02/13 00:35:57;;;;;;;24.47;12.03;;;;;;;-1.03;70.54;102626.45;126312;1099;104230;-82
2022/02/13 00:38:29;;;;;;;24.70;12.10;;;;;;;-1.07;71.82;102626.86;126370;1099;104303;-81
2022/02/13 00:41:00;;;;;;;25.30;12.33;;;;;;;-1.07;70.80;102631.11;126306;1099;104127;-81
2022/02/13 00:43:32;;;;;;;29.60;13.00;;;;;;;-1.07;71.53;102629.44;126303;1099;104214;-82
2022/02/13 00:46:04;;;;;;;28.60;13.70;;;;;;;-1.07;71.06;102628.53;126330;1099;104143;-83
2022/02/13 00:48:35;;;;;;;26.67;13.40;;;;;;;-1.09;70.75;102621.53;126334;1099;104235;-83
2022/02/13 00:51:07;;;;;;;30.27;14.17;;;;;;;-1.16;71.36;102618.96;126348;1099;104142;-83
2022/02/13 00:53:38;;;;;;;26.93;13.63;;;;;;;-1.19;71.14;102618.60;126247;1099;104286;-81
2022/02/13 00:56:10;;;;;;;26.70;13.63;;;;;;;-1.19;70.60;102608.30;126353;1097;104191;-83
2022/02/13 00:58:42;;;;;;;28.40;14.03;;;;;;;-1.16;71.59;102615.48;126353;1099;105021;-82
2022/02/13 01:01:14;;;;;;;27.57;13.63;;;;;;;-1.15;71.57;102602.77;126373;1099;104229;-83
2022/02/13 01:03:45;;;;;;;29.70;14.37;;;;;;;-1.14;71.28;102607.20;126306;1099;104146;-81
2022/02/13 01:06:16;;;;;;;27.73;13.73;;;;;;;-1.12;71.35;102607.38;126356;1099;104169;-83
2022/02/13 01:08:48;;;;;;;26.80;13.33;;;;;;;-1.12;71.60;102604.80;126368;1098;104143;-82
2022/02/13 01:11:19;;;;;;;28.63;13.77;;;;;;;-1.11;71.34;102604.03;126373;1099;104178;-83
2022/02/13 01:13:51;;;;;;;25.93;13.23;;;;;;;-1.15;71.55;102600.20;126348;1097;104574;-82
2022/02/13 01:16:23;;;;;;;27.10;13.20;;;;;;;-1.17;71.60;102601.69;126377;1099;104150;-83
2022/02/13 01:18:54;;;;;;;26.83;13.73;;;;;;;-1.19;70.86;102613.45;126298;1099;104182;-83
2022/02/13 01:21:26;;;;;;;27.47;13.67;;;;;;;-1.23;71.02;102616.43;126341;1097;105111;-83
2022/02/13 01:23:58;;;;;;;25.60;12.83;;;;;;;-1.28;70.76;102609.80;126285;1099;104296;-82
2022/02/13 01:26:30;;;;;;;27.95;14.60;;;;;;;-1.30;71.72;102613.87;126296;1099;104144;-82
2022/02/13 01:29:01;;;;;;;27.10;13.27;;;;;;;-1.29;70.80;102608.89;126393;1097;104274;-83
2022/02/13 01:31:36;;;;;;;26.00;13.53;;;;;;;-1.25;71.89;102617.89;126295;1099;104198;-81
2022/02/13 01:34:07;;;;;;;26.87;13.30;;;;;;;-1.23;71.97;102608.70;126357;1099;104207;-83
2022/02/13 01:36:39;;;;;;;28.50;14.00;;;;;;;-1.21;71.98;102612.37;126372;1099;104198;-83
2022/02/13 01:39:11;;;;;;;31.00;13.80;;;;;;;-1.19;71.46;102612.55;126329;1099;104253;-81
2022/02/13 01:41:45;;;;;;;28.90;14.10;;;;;;;-1.18;71.92;102620.45;126359;1099;104242;-82
2022/02/13 01:44:27;;;;;;;30.27;14.03;;;;;;;-1.18;71.39;102615.30;126309;1099;104228;-82
2022/02/13 01:47:00;;;;;;;31.23;14.07;;;;;;;-1.18;72.06;102615.30;126347;1099;104213;-82
2022/02/13 01:49:33;;;;;;;30.07;14.50;;;;;;;-1.21;71.89;102609.79;126361;1099;104143;-82
2022/02/13 01:52:05;;;;;;;27.40;14.03;;;;;;;-1.24;71.47;102613.67;126382;1099;104169;-82
2022/02/13 01:54:37;;;;;;;27.23;13.10;;;;;;;-1.26;71.27;102618.65;126327;1099;104153;-81
2022/02/13 01:57:11;;;;;;;29.23;13.87;;;;;;;-1.29;71.59;102618.29;126328;1099;104204;-81
2022/02/13 01:59:44;;;;;;;28.93;14.40;;;;;;;-1.34;71.65;102603.93;126359;1099;104149;-82
2022/02/13 02:02:15;;;;;;;30.10;14.40;;;;;;;-1.40;71.47;102616.09;126341;1097;104162;-82
2022/02/13 02:04:50;;;;;;;27.40;14.43;;;;;;;-1.40;71.50;102616.09;126315;1099;104290;-82
2022/02/13 02:07:22;;;;;;;28.60;14.00;;;;;;;-1.37;72.10;102621.59;126365;1099;104222;-81
2022/02/13 02:09:55;;;;;;;29.63;15.07;;;;;;;-1.37;71.58;102622.55;126378;1099;104374;-82
2022/02/13 02:12:26;;;;;;;30.53;15.33;;;;;;;-1.36;71.47;102621.78;126340;1099;104213;-81
2022/02/13 02:14:58;;;;;;;31.23;15.13;;;;;;;-1.34;71.14;102624.53;126320;1099;104156;-81
2022/02/13 02:17:29;;;;;;;35.27;17.30;;;;;;;-1.34;71.72;102627.11;126349;1099;104273;-82
2022/02/13 02:20:01;;;;;;;31.30;15.53;;;;;;;-1.36;71.62;102626.02;126363;1099;104294;-81
2022/02/13 02:22:32;;;;;;;33.10;15.97;;;;;;;-1.38;71.11;102625.84;126273;1099;104293;-82
2022/02/13 02:25:05;;;;;;;31.87;15.97;;;;;;;-1.41;72.39;102622.91;126313;1097;104139;-82
2022/02/13 02:27:37;;;;;;;29.13;14.53;;;;;;;-1.46;71.01;102617.22;126335;1099;104256;-81
2022/02/13 02:30:11;;;;;;;32.60;15.83;;;;;;;-1.48;70.86;102629.00;126355;1099;104226;-81
2022/02/13 02:32:42;;;;;;;30.57;15.13;;;;;;;-1.50;72.15;102620.16;126396;1099;104226;-81
2022/02/13 02:35:14;;;;;;;29.53;14.67;;;;;;;-1.54;72.13;102617.98;126275;1099;104208;-82
2022/02/13 02:37:45;;;;;;;31.57;14.60;;;;;;;-1.58;71.66;102617.44;126365;1099;104242;-81
2022/02/13 02:40:18;;;;;;;28.50;14.70;;;;;;;-1.62;71.04;102613.59;126337;1098;104191;-82
2022/02/13 02:42:50;;;;;;;31.30;15.73;;;;;;;-1.63;72.26;102620.37;126369;1099;104631;-81
2022/02/13 02:45:21;;;;;;;30.37;15.60;;;;;;;-1.59;72.32;102613.02;126315;1099;104329;-81
2022/02/13 02:47:53;;;;;;;30.33;15.77;;;;;;;-1.59;72.25;102613.95;126326;1097;104239;-81
2022/02/13 02:50:24;;;;;;;29.43;15.23;;;;;;;-1.58;72.19;102618.34;126366;1099;104188;-82
2022/02/13 02:52:56;;;;;;;29.97;15.07;;;;;;;-1.61;71.46;102615.41;126362;1099;104239;-82
2022/02/13 02:55:27;;;;;;;28.67;13.80;;;;;;;-1.65;72.43;102615.80;126343;1099;104140;-80
2022/02/13 02:57:59;;;;;;;32.30;15.20;;;;;;;-1.69;71.63;102619.64;126350;1099;117812;-81
2022/02/13 03:00:30;;;;;;;30.90;15.47;;;;;;;-1.73;72.16;102624.25;126261;1099;104223;-82
2022/02/13 03:03:01;;;;;;;31.70;15.87;;;;;;;-1.73;71.85;102621.67;126345;1099;104644;-81
2022/02/13 03:05:33;;;;;;;29.80;16.00;;;;;;;-1.72;72.25;102619.28;126307;1098;104242;-82
2022/02/13 03:08:05;;;;;;;29.45;15.25;;;;;;;-1.74;71.28;102615.62;126289;1099;104595;-82
2022/02/13 03:10:37;;;;;;;29.97;14.70;;;;;;;-1.76;71.69;102614.53;126376;1099;104290;-82
2022/02/13 03:13:10;;;;;;;31.37;15.23;;;;;;;-1.74;71.71;102612.14;126320;1099;104152;-81
2022/02/13 03:15:41;;;;;;;31.57;15.33;;;;;;;-1.73;72.22;102613.95;126396;1096;104140;-82
2022/02/13 03:18:14;;;;;;;29.53;15.17;;;;;;;-1.77;72.24;102625.55;126291;1099;104136;-81
2022/02/13 03:20:46;;;;;;;30.73;15.30;;;;;;;-1.84;72.27;102620.39;126396;1099;104194;-81
2022/02/13 03:23:18;;;;;;;29.83;15.23;;;;;;;-1.89;71.98;102613.79;126338;1097;104130;-82
2022/02/13 03:25:50;;;;;;;29.53;14.70;;;;;;;-1.92;72.65;102621.14;126369;1099;104644;-82
2022/02/13 03:28:21;;;;;;;31.63;15.57;;;;;;;-1.93;72.56;102615.09;126256;1099;104960;-82
2022/02/13 03:30:53;;;;;;;31.57;14.93;;;;;;;-1.93;72.28;102611.57;126345;1099;104146;-82
2022/02/13 03:33:24;;;;;;;32.43;16.27;;;;;;;-1.90;72.16;102620.60;126394;1099;104152;-81
2022/02/13 03:35:55;;;;;;;29.33;14.80;;;;;;;-1.93;72.69;102609.94;126332;1099;104172;-81
2022/02/13 03:38:27;;;;;;;30.30;15.70;;;;;;;-1.96;71.81;102617.30;126286;1099;104131;-82
2022/02/13 03:40:58;;;;;;;30.23;15.43;;;;;;;-1.96;71.47;102614.72;126358;1099;104146;-81
2022/02/13 03:43:31;;;;;;;33.07;16.30;;;;;;;-1.97;71.29;102606.82;126328;1099;105154;-81
2022/02/13 03:46:02;;;;;;;30.17;15.23;;;;;;;-2.02;72.06;102608.84;126375;1099;104197;-81
2022/02/13 03:48:33;;;;;;;30.87;15.27;;;;;;;-2.11;71.33;102613.79;126344;1099;104303;-81
2022/02/13 03:51:05;;;;;;;29.60;14.50;;;;;;;-2.19;72.68;102605.15;126303;1099;104143;-82
2022/02/13 03:53:36;;;;;;;30.50;15.93;;;;;;;-2.25;72.64;102606.98;126391;1099;104156;-80
2022/02/13 03:56:09;;;;;;;29.43;14.97;;;;;;;-2.29;71.78;102612.52;126314;1099;104165;-81
2022/02/13 03:58:40;;;;;;;30.43;14.63;;;;;;;-2.29;72.25;102603.86;126343;1099;104140;-82
2022/02/13 04:01:12;;;;;;;30.77;15.47;;;;;;;-2.27;72.65;102605.89;126371;1099;104322;-81
2022/02/13 04:03:43;;;;;;;28.87;15.03;;;;;;;-2.24;72.88;102603.69;126303;1099;104156;-81
2022/02/13 04:06:14;;;;;;;28.57;14.37;;;;;;;-2.26;72.30;102605.16;126356;1099;104166;-82
2022/02/13 04:08:46;;;;;;;29.07;13.97;;;;;;;-2.28;73.23;102606.61;126272;1099;104140;-81
2022/02/13 04:11:18;;;;;;;30.33;14.33;;;;;;;-2.31;71.72;102607.91;126384;1099;104133;-82
2022/02/13 04:13:49;;;;;;;29.57;15.10;;;;;;;-2.36;72.69;102592.83;126331;1098;104728;-81
2022/02/13 04:16:20;;;;;;;31.50;15.73;;;;;;;-2.37;71.99;102596.16;126317;1099;104137;-82
2022/02/13 04:18:52;;;;;;;32.07;15.20;;;;;;;-2.36;72.67;102599.63;126323;1097;104210;-82
2022/02/13 04:21:23;;;;;;;27.60;14.50;;;;;;;-2.38;71.75;102595.97;126348;1098;104137;-82
2022/02/13 04:23:56;;;;;;;35.77;16.03;;;;;;;-2.41;73.18;102598.17;126341;1099;104163;-82
2022/02/13 04:26:28;;;;;;;31.23;15.57;;;;;;;-2.44;71.95;102600.37;126355;1099;104191;-81
2022/02/13 04:29:00;;;;;;;30.53;14.77;;;;;;;-2.49;73.12;102601.44;126314;1099;104198;-82
2022/02/13 04:31:31;;;;;;;28.70;15.17;;;;;;;-2.54;71.89;102603.45;126351;1099;104139;-81
2022/02/13 04:34:07;;;;;;;32.23;15.80;;;;;;;-2.58;72.71;102607.31;126361;1099;104242;-81
2022/02/13 04:36:38;;;;;;;33.63;16.23;;;;;;;-2.60;72.98;102613.92;126346;1099;104569;-82
2022/02/13 04:39:10;;;;;;;35.10;17.07;;;;;;;-2.57;71.96;102614.30;126307;1098;103043;-82
2022/02/13 04:41:41;;;;;;;32.07;15.43;;;;;;;-2.55;72.34;102611.91;126289;1099;101747;-81
2022/02/13 04:44:13;;;;;;;36.30;17.47;;;;;;;-2.52;73.06;102604.58;126376;1099;104163;-82
2022/02/13 04:46:44;;;;;;;31.17;16.00;;;;;;;-2.51;72.69;102614.11;126325;1099;104149;-81
2022/02/13 04:49:20;;;;;;;35.00;17.40;;;;;;;-2.48;72.51;102606.77;126334;1098;104136;-81
2022/02/13 04:51:52;;;;;;;33.95;17.40;;;;;;;-2.46;72.69;102612.09;126343;1099;104143;-81
2022/02/13 04:54:23;;;;;;;34.93;17.70;;;;;;;-2.46;72.80;102614.66;126358;1099;104653;-81
2022/02/13 04:56:55;;;;;;;34.60;16.33;;;;;;;-2.47;73.04;102611.19;126327;1099;104165;-82
2022/02/13 04:59:28;;;;;;;37.10;17.63;;;;;;;-2.46;73.09;102604.38;126285;1099;104179;-81
2022/02/13 05:02:00;;;;;;;33.38;16.85;;;;;;;-2.46;73.08;102604.38;126374;1099;104165;-81
2022/02/13 05:04:32;;;;;;;37.10;17.97;;;;;;;-2.44;73.13;102611.56;126328;1097;104396;-82
2022/02/13 05:07:05;;;;;;;32.73;16.73;;;;;;;-2.46;72.53;102602.75;126306;1099;104315;-80
2022/02/13 05:09:37;;;;;;;31.17;16.82;;;;;;;-2.47;72.63;102600.91;126113;1099;105472;-81
2022/02/13 05:12:09;;;;;;;35.20;18.13;;;;;;;-2.47;72.12;102595.77;126248;1098;104230;-81
2022/02/13 05:14:41;;;;;;;34.57;16.93;;;;;;;-2.43;72.09;102599.61;126280;1099;104165;-81
2022/02/13 05:17:13;;;;;;;33.73;16.27;;;;;;;-2.43;73.23;102597.98;126221;1099;104166;-80
2022/02/13 05:19:44;;;;;;;34.10;15.80;;;;;;;-2.43;72.40;102603.13;126064;1098;104206;-81
2022/02/13 05:22:16;;;;;;;35.43;17.17;;;;;;;-2.42;73.21;102606.61;126116;1099;104657;-80
2022/02/13 05:24:48;;;;;;;34.90;18.00;;;;;;;-2.43;73.20;102604.75;126097;1099;104200;-80
2022/02/13 05:27:20;;;;;;;36.17;18.43;;;;;;;-2.44;73.26;102602.94;126111;1099;104215;-81
2022/02/13 05:29:51;;;;;;;40.53;19.90;;;;;;;-2.45;72.31;102601.09;126014;1099;104736;-81
2022/02/13 05:32:22;;;;;;;35.80;19.15;;;;;;;-2.46;73.21;102607.89;126065;1099;104323;-81
2022/02/13 05:34:54;;;;;;;37.63;19.33;;;;;;;-2.47;72.74;102606.05;126254;1099;104142;-80
2022/02/13 05:37:25;;;;;;;38.53;19.17;;;;;;;-2.46;72.78;102605.33;126177;1098;104163;-81
2022/02/13 05:39:57;;;;;;;44.73;20.67;;;;;;;-2.42;72.25;102607.52;126215;1099;102943;-81
2022/02/13 05:42:28;;;;;;;37.70;18.80;;;;;;;-2.37;72.67;102608.07;126225;1099;104345;-81
2022/02/13 05:45:00;;;;;;;40.07;20.30;;;;;;;-2.40;72.78;102612.84;126331;1099;104740;-82
2022/02/13 05:47:31;;;;;;;39.80;20.30;;;;;;;-2.40;72.10;102612.84;126378;1099;104628;-80
2022/02/13 05:50:02;;;;;;;40.20;20.63;;;;;;;-2.38;73.16;102613.97;126322;1099;104238;-81
2022/02/13 05:52:35;;;;;;;40.83;19.97;;;;;;;-2.33;73.49;102610.29;126252;1099;104137;-80
2022/02/13 05:55:07;;;;;;;39.63;19.93;;;;;;;-2.32;73.14;102612.14;126300;1099;104293;-80
2022/02/13 05:57:43;;;;;;;38.83;19.63;;;;;;;-2.29;73.04;102617.66;126214;1099;104189;-81
2022/02/13 06:00:18;;;;;;;36.33;17.57;;;;;;;-2.31;72.63;102613.95;126329;1098;104248;-80
2022/02/13 06:02:49;;;;;;;39.57;19.77;;;;;;;-2.30;72.75;102620.95;126326;1099;104136;-80
2022/02/13 06:05:22;;;;;;;39.77;19.07;;;;;;;-2.29;72.27;102617.66;126345;1099;104145;-80
2022/02/13 06:07:54;;;;;;;41.03;20.07;;;;;;;-2.27;73.15;102621.32;126163;1098;104162;-80
2022/02/13 06:10:26;;;;;;;42.20;20.37;;;;;;;-2.27;72.88;102621.32;126201;1099;104213;-80
2022/02/13 06:12:57;;;;;;;39.60;19.57;;;;;;;-2.24;72.50;102620.78;125961;1099;102261;-81
2022/02/13 06:15:29;;;;;;;35.40;18.50;;;;;;;-2.18;72.30;102622.44;126017;1099;104172;-81
2022/02/13 06:18:00;;;;;;;36.63;18.50;;;;;;;-2.13;73.17;102619.50;126027;1099;104179;-81
2022/02/13 06:20:32;;;;;;;42.00;19.37;;;;;;;-2.09;72.36;102616.55;126056;1099;104313;-80
2022/02/13 06:23:03;;;;;;;38.00;20.50;;;;;;;-1.99;72.92;102615.27;126022;1099;104176;-81
2022/02/13 06:25:35;;;;;;;42.25;20.15;;;;;;;-1.90;73.15;102605.16;126101;1099;104176;-81
2022/02/13 06:28:07;;;;;;;36.60;19.27;;;;;;;-1.84;72.85;102611.04;126166;1099;104226;-80
2022/02/13 06:30:39;;;;;;;42.53;20.83;;;;;;;-1.84;72.77;102599.80;126105;1099;104156;-81
2022/02/13 06:33:10;;;;;;;42.37;21.67;;;;;;;-1.80;72.11;102596.87;126003;1099;104230;-80
2022/02/13 06:35:42;;;;;;;46.17;22.70;;;;;;;-1.71;72.83;102599.63;126142;1099;104245;-81
2022/02/13 06:38:15;;;;;;;42.70;21.27;;;;;;;-1.63;72.44;102601.45;126233;1099;104144;-81
2022/02/13 06:40:46;;;;;;;41.97;22.53;;;;;;;-1.57;73.01;102601.23;126246;1099;104595;-81
2022/02/13 06:43:21;;;;;;;47.07;24.23;;;;;;;-1.49;72.60;102605.64;126229;1099;104661;-81
2022/02/13 06:46:01;;;;;;;47.30;23.10;;;;;;;-1.40;72.57;102601.58;126268;1099;104257;-81
2022/02/13 06:48:33;;;;;;;46.63;23.07;;;;;;;-1.35;73.09;102596.97;126284;1099;104187;-82
2022/02/13 06:51:09;;;;;;;44.73;23.00;;;;;;;-1.32;72.78;102593.08;126308;1099;104140;-81
2022/02/13 06:53:41;;;;;;;53.80;25.87;;;;;;;-1.24;72.33;102583.67;126309;1098;104201;-81
2022/02/13 06:56:15;;;;;;;44.70;23.57;;;;;;;-1.11;72.38;102583.42;126341;1099;104760;-81
2022/02/13 06:58:46;;;;;;;45.67;24.45;;;;;;;-0.96;73.09;102581.72;126369;1099;104179;-81
2022/02/13 07:01:18;;;;;;;41.23;21.90;;;;;;;-0.83;72.74;102578.87;126279;1099;104256;-83
2022/02/13 07:03:49;;;;;;;40.40;22.17;;;;;;;-0.74;72.39;102575.68;126373;1099;104198;-83
2022/02/13 07:06:21;;;;;;;49.67;25.83;;;;;;;-0.59;73.31;102581.68;126329;1097;104203;-81
2022/02/13 07:08:52;;;;;;;44.03;23.63;;;;;;;-0.43;72.60;102578.27;126176;1099;104248;-81
2022/02/13 07:11:24;;;;;;;51.07;25.70;;;;;;;-0.30;72.73;102572.81;126083;1099;104203;-82
2022/02/13 07:13:55;;;;;;;45.17;23.97;;;;;;;-0.19;73.33;102575.86;126072;1099;104242;-82
2022/02/13 07:16:29;;;;;;;44.17;24.17;;;;;;;-0.12;73.18;102571.39;126186;1099;104249;-82
2022/02/13 07:19:00;;;;;;;42.98;23.47;;;;;;;-0.07;72.68;102571.13;126116;1099;104222;-82
2022/02/13 07:21:32;;;;;;;44.83;22.67;;;;;;;-0.04;73.30;102568.89;126025;1099;102139;-82
2022/02/13 07:24:03;;;;;;;41.30;22.40;;;;;;;0.05;72.78;102560.33;126196;1099;104398;-83
2022/02/13 07:26:34;;;;;;;43.10;23.30;;;;;;;0.09;72.73;102563.42;126243;1099;104152;-82
2022/02/13 07:29:09;;;;;;;44.77;24.67;;;;;;;0.12;72.97;102558.59;126208;1098;104242;-82
2022/02/13 07:31:40;;;;;;;47.03;24.60;;;;;;;0.13;72.77;102564.70;126230;1099;104146;-83
2022/02/13 07:34:12;;;;;;;46.13;24.33;;;;;;;0.20;73.28;102546.53;126291;1099;104307;-82
2022/02/13 07:36:43;;;;;;;43.40;24.50;;;;;;;0.31;73.02;102545.13;126327;1099;104175;-83
2022/02/13 07:39:14;;;;;;;48.70;25.87;;;;;;;0.37;72.27;102558.72;126342;1099;104675;-82
2022/02/13 07:41:46;;;;;;;46.57;25.70;;;;;;;0.39;72.86;102539.16;126325;1098;105393;-82
2022/02/13 07:44:17;;;;;;;45.37;26.37;;;;;;;0.45;72.85;102538.89;126362;1099;104143;-82
2022/02/13 07:46:49;;;;;;;48.87;26.73;;;;;;;0.55;73.17;102544.33;126293;1099;104818;-82
2022/02/13 07:49:21;;;;;;;46.27;26.10;;;;;;;0.66;72.55;102535.16;126340;1099;104198;-82
2022/02/13 07:51:52;;;;;;;50.23;26.97;;;;;;;0.71;72.11;102534.87;126129;1099;104197;-82
2022/02/13 07:54:24;;;;;;;47.33;26.93;;;;;;;0.76;72.71;102531.88;126304;1099;104198;-81
2022/02/13 07:56:55;;;;;;;48.40;26.20;;;;;;;0.83;72.13;102529.22;126300;1099;104349;-81
2022/02/13 07:59:27;;;;;;;46.80;26.23;;;;;;;0.89;72.09;102523.02;126365;1099;102076;-82
2022/02/13 08:02:00;;;;;;;48.13;27.20;;;;;;;0.97;72.20;102522.94;126236;1099;104307;-81
2022/02/13 08:04:31;;;;;;;49.27;28.40;;;;;;;1.03;71.94;102527.08;126344;1099;104239;-81
2022/02/13 08:07:03;;;;;;;47.33;26.37;;;;;;;1.14;72.26;102535.05;126320;1099;104130;-81
2022/02/13 08:09:34;;;;;;;47.90;26.23;;;;;;;1.25;72.29;102526.77;126353;1099;104173;-82
2022/02/13 08:12:07;;;;;;;51.07;26.07;;;;;;;1.37;72.22;102525.48;126302;1097;104272;-82
2022/02/13 08:14:39;;;;;;;48.03;25.83;;;;;;;1.54;72.21;102523.72;126379;1098;104326;-82
2022/02/13 08:17:10;;;;;;;49.30;26.07;;;;;;;1.69;72.53;102520.14;126303;1099;104146;-82
2022/02/13 08:19:42;;;;;;;53.13;25.90;;;;;;;1.77;72.11;102521.84;126382;1099;104192;-82
2022/02/13 08:22:13;;;;;;;51.27;25.47;;;;;;;1.87;71.16;102517.61;126213;1099;104214;-82
2022/02/13 08:24:46;;;;;;;46.50;24.77;;;;;;;2.01;72.27;102519.03;126368;1099;104309;-81
2022/02/13 08:27:18;;;;;;;46.20;24.17;;;;;;;2.12;72.03;102511.62;126348;1099;104312;-82
2022/02/13 08:29:51;;;;;;;44.73;23.53;;;;;;;2.26;72.00;102504.31;126351;1099;104265;-81
2022/02/13 08:32:23;;;;;;;48.00;23.30;;;;;;;2.36;71.03;102507.08;126311;1099;104146;-80
2022/02/13 08:34:54;;;;;;;41.53;22.33;;;;;;;2.41;71.31;102503.27;126344;1099;104147;-81
2022/02/13 08:37:26;;;;;;;45.50;22.30;;;;;;;2.47;71.12;102496.11;126339;1099;104211;-83
2022/02/13 08:39:57;;;;;;;42.03;21.17;;;;;;;2.60;71.75;102499.93;126347;1099;104160;-82
2022/02/13 08:42:29;;;;;;;39.90;22.10;;;;;;;2.75;71.94;102503.14;126257;1099;104200;-81
2022/02/13 08:45:01;;;;;;;40.87;21.80;;;;;;;2.92;72.19;102502.22;126350;1099;104146;-82
2022/02/13 08:47:32;;;;;;;40.80;21.53;;;;;;;3.06;72.15;102504.48;126347;1099;104150;-80
2022/02/13 08:50:04;;;;;;;39.83;21.67;;;;;;;3.14;71.53;102498.36;126360;1099;104312;-82
2022/02/13 08:52:35;;;;;;;39.43;20.40;;;;;;;3.25;71.50;102499.41;126248;1098;104146;-82
2022/02/13 08:55:09;;;;;;;36.33;20.07;;;;;;;3.34;71.48;102496.80;126298;1099;106984;-82
2022/02/13 08:57:40;;;;;;;38.63;19.33;;;;;;;3.40;70.45;102489.61;126268;1099;104249;-82
2022/02/13 09:00:17;;;;;;;37.80;18.57;;;;;;;3.51;71.15;102488.95;126219;1099;104132;-82
2022/02/13 09:02:48;;;;;;;35.47;18.77;;;;;;;3.59;70.28;102490.58;126274;1099;104621;-81
2022/02/13 09:05:20;;;;;;;35.37;19.03;;;;;;;3.68;70.08;102487.06;126350;1099;117935;-82
2022/02/13 09:07:51;;;;;;;30.10;16.63;;;;;;;3.82;69.81;102477.95;126298;1099;104194;-81
2022/02/13 09:10:23;;;;;;;33.70;15.35;;;;;;;3.87;69.20;102469.84;126339;1099;102758;-81
2022/02/13 09:12:54;;;;;;;29.47;15.93;;;;;;;3.96;70.17;102473.30;126293;1099;104153;-82
2022/02/13 09:15:28;;;;;;;32.25;15.65;;;;;;;4.02;69.84;102467.78;126278;1099;104226;-81
2022/02/13 09:17:58;;;;;;;;;;;;;;;4.10;68.14;102461.61;126371;1099;104262;-82
2022/02/13 09:20:29;;;;;;;26.00;12.57;;;;;;;4.20;69.90;102454.67;126325;1099;104143;-81
2022/02/13 09:23:01;;;;;;;23.90;11.85;;;;;;;4.29;67.35;102456.42;126390;1099;104153;-82
2022/02/13 09:25:32;;;;;;;23.83;10.87;;;;;;;4.38;68.63;102453.77;126293;1099;104608;-82
2022/02/13 09:28:04;;;;;;;22.20;9.43;;;;;;;4.52;68.62;102454.09;126238;1099;104255;-81
2022/02/13 09:30:37;;;;;;;25.37;8.20;;;;;;;4.61;68.03;102454.94;126196;1099;104284;-82
2022/02/13 09:33:09;;;;;;;20.37;8.63;;;;;;;4.76;68.04;102445.92;125455;1099;104329;-82
2022/02/13 09:35:43;;;;;;;20.73;7.67;;;;;;;4.91;67.77;102441.20;125413;1099;104195;-80
2022/02/13 09:38:16;;;;;;;17.10;6.97;;;;;;;4.95;62.93;102435.48;126235;1099;104481;-82
2022/02/13 09:40:48;;;;;;;17.50;7.60;;;;;;;5.05;66.96;102439.84;126234;1099;104261;-81
2022/02/13 09:43:22;;;;;;;18.10;7.40;;;;;;;5.13;63.76;102420.60;126231;1099;104159;-81
2022/02/13 09:45:56;;;;;;;17.10;6.93;;;;;;;5.20;66.51;102427.25;126169;1099;104290;-82
2022/02/13 09:48:28;;;;;;;16.93;6.70;;;;;;;5.28;65.49;102433.13;126258;1099;104300;-82
2022/02/13 09:51:02;;;;;;;14.20;6.17;;;;;;;5.31;65.81;102418.69;126226;1099;104332;-82
2022/02/13 09:53:34;;;;;;;16.15;6.30;;;;;;;5.35;65.73;102407.77;126232;1099;104634;-81
2022/02/13 09:56:08;;;;;;;16.57;6.70;;;;;;;5.44;65.74;102411.95;126130;1099;104421;-81
2022/02/13 09:58:40;;;;;;;18.53;6.53;;;;;;;5.51;65.81;102407.41;126225;1099;104405;-82
2022/02/13 10:01:12;;;;;;;16.37;6.10;;;;;;;5.60;65.01;102398.59;126316;1098;104149;-82
2022/02/13 10:03:45;;;;;;;16.73;6.23;;;;;;;5.68;61.98;102385.42;126366;1099;104351;-81
2022/02/13 10:06:25;;;;;;;14.37;5.53;;;;;;;5.74;62.90;102385.95;126307;1099;104171;-82
2022/02/13 10:08:57;;;;;;;13.03;5.20;;;;;;;5.79;62.23;102367.20;126270;1099;104149;-81
2022/02/13 10:11:33;;;;;;;8.37;3.90;;;;;;;5.85;62.57;102367.72;126169;1099;104322;-80
2022/02/13 10:14:06;;;;;;;14.40;5.30;;;;;;;5.89;63.43;102372.39;126367;1099;104166;-83
2022/02/13 10:16:39;;;;;;;10.67;4.90;;;;;;;5.94;63.33;102363.30;126295;1098;104265;-81
2022/02/13 10:19:12;;;;;;;7.90;3.70;;;;;;;5.94;60.92;102363.30;126353;1099;104669;-81
2022/02/13 10:21:49;;;;;;;8.13;3.77;;;;;;;5.97;59.70;102358.38;126364;1099;104251;-82
2022/02/13 10:24:27;;;;;;;10.33;3.70;;;;;;;5.97;60.58;102355.77;126330;1097;104271;-82
2022/02/13 10:27:10;;;;;;;11.80;3.90;;;;;;;5.97;60.31;102350.55;126243;1099;104197;-82
2022/02/13 10:29:43;;;;;;;12.20;4.70;;;;;;;5.99;60.77;102346.38;126287;1099;104157;-82
2022/02/13 10:32:25;;;;;;;11.93;4.78;;;;;;;6.01;56.12;102336.98;126304;1099;104201;-81
2022/02/13 10:35:03;;;;;;;12.70;5.27;;;;;;;6.06;59.01;102333.08;126283;1099;104421;-82
2022/02/13 10:37:43;;;;;;;9.20;4.83;;;;;;;6.07;58.33;102329.67;126314;1099;107710;-82
2022/02/13 10:40:17;;;;;;;10.47;4.50;;;;;;;6.10;57.00;102332.53;126346;1099;104201;-82
2022/02/13 10:42:49;;;;;;;10.40;4.85;;;;;;;6.14;60.33;102336.33;126355;1099;104101;-82
2022/02/13 10:45:23;;;;;;;10.93;5.03;;;;;;;6.14;59.41;102325.91;126116;1099;104139;-81
2022/02/13 10:47:57;;;;;;;11.13;4.77;;;;;;;6.18;58.46;102320.14;126287;1099;117851;-81
2022/02/13 10:50:28;;;;;;;;;;;;;;;6.19;55.58;102318.47;126341;1099;104147;-79
2022/02/13 10:53:01;;;;;;;10.43;4.60;;;;;;;6.26;58.74;102315.55;126340;1099;104258;-82
2022/02/13 10:55:35;;;;;;;10.63;4.62;;;;;;;6.29;58.04;102315.81;126305;1099;105618;-82
2022/02/13 10:58:07;;;;;;;8.43;3.85;;;;;;;6.32;57.19;102308.23;126301;1099;104146;-80
2022/02/13 11:00:39;;;;;;;10.13;4.50;;;;;;;6.27;57.43;102302.64;126355;1099;104149;-82
2022/02/13 11:03:18;;;;;;;12.67;4.60;;;;;;;6.25;56.81;102296.41;126297;1099;104278;-81
2022/02/13 11:05:53;;;;;;;11.47;4.50;;;;;;;6.28;58.02;102298.36;126290;1099;104315;-81
2022/02/13 11:08:28;;;;;;;10.97;4.90;;;;;;;6.29;55.89;102294.95;126306;1099;110831;-80
2022/02/13 11:11:02;;;;;;;9.60;4.37;;;;;;;6.32;55.95;102278.66;126344;1099;104239;-81
2022/02/13 11:13:35;;;;;;;10.60;4.90;;;;;;;6.29;56.58;102293.27;125422;1098;104166;-82
2022/02/13 11:16:30;;;;;;;12.58;4.40;;;;;;;6.32;56.72;102286.48;126297;1099;104245;-82
2022/02/13 11:19:13;;;;;;;14.00;5.03;;;;;;;6.32;55.52;102279.55;126345;1099;104444;-81
2022/02/13 11:21:55;;;;;;;9.63;4.60;;;;;;;6.32;56.24;102269.12;126292;1099;104139;-81